メインページ
METAR-TAF:

METAR-TAF

空港 :

ジッダ, サウジアラビア

キング・アブドゥルアズィーズ国際空港

緯度: 21-42N, 経度: 039-11E, 海抜: 15m

現時点の気象観測

当レポートは50分前の11:00(UTC)に作成
西/北西の風 20kt
気温 37°C
湿度 29%
気圧 1007 hPa
視程: 8000m
高度4000ftの雲はほとんどない

METAR: OEJN 241100Z 30020KT 8000 FEW040 37/16 Q1007 NOSIG

時間: 14:50 (11:50 UTC)

予報

当レポートは50分前の11:00(UTC)に作成
予報は24日の 12時(UTC)から 25日の 18時(UTC)まで有効
西/北西の風 10kt、最大20ktの突風を伴う
視程: 8000m
高度4000ftの雲はほとんどない
高度10000ftの雲は散在している
24日の 20時(UTC)から 24日の 22時(UTC)まで徐々に
の風 10kt

TAF: OEJN 241100Z 2412/2518 30010G20KT 8000 FEW040 SCT100 BECMG 2420/2422 01010KT

4,000以上の空港の気象観測と天気予報(METAR報とTAF報)

利用可能な観測所は地図上に黄色い丸と赤い丸で示す。

丸の上にカーソルを重ねると観測所名を参照できる。

次にクリックすると気象観測と天気予報を参照できる。

マップの切り替え:黒色「×」印の緑ボタンをクリックして拡大、「-」印の緑ボタンをクリックして縮小、緑色の三角印をクリックして隣りの地図に切り替え


METAR-TAF: